Time;durP1;ratioP1;P1;durP2;ratioP2;P2;SDS_P1;SDS_P2;PMS_P1;PMS_P2;Temp;Humidity;BMP_temperature;BMP_pressure;BME280_temperature;BME280_humidity;BME280_pressure;Samples;Min_cycle;Max_cycle;Signal;HPM_P1;HPM_P2
2022/06/13 00:00:55;;;;;;;6.90;2.50;;;;;;;16.42;100.00;98949.41;5003070;28;20026;-73
2022/06/13 00:03:20;;;;;;;5.20;2.15;;;;;;;16.44;100.00;98957.38;5008512;28;20089;-72
2022/06/13 00:05:46;;;;;;;7.72;2.80;;;;;;;16.50;100.00;98950.13;5007368;28;20090;-72
2022/06/13 00:08:11;;;;;;;6.57;3.03;;;;;;;16.49;100.00;98943.84;5008339;28;20058;-72
2022/06/13 00:10:36;;;;;;;4.63;2.70;;;;;;;16.42;100.00;98940.41;5003994;28;20033;-72
2022/06/13 00:13:03;;;;;;;5.38;2.50;;;;;;;16.40;100.00;98935.19;5016298;28;20495;-72
2022/06/13 00:15:28;;;;;;;13.20;3.30;;;;;;;16.46;100.00;98918.94;5003286;28;20508;-72
2022/06/13 00:17:53;;;;;;;5.95;2.30;;;;;;;16.49;100.00;98921.16;5009838;28;20030;-71
2022/06/13 00:20:19;;;;;;;7.65;2.30;;;;;;;16.44;100.00;98925.44;5007568;28;20026;-72
2022/06/13 00:22:44;;;;;;;9.02;2.47;;;;;;;16.35;100.00;98913.22;5008321;28;20026;-72
2022/06/13 00:25:09;;;;;;;5.68;2.65;;;;;;;16.47;100.00;98924.13;5002228;28;20160;-71
2022/06/13 00:27:35;;;;;;;6.00;2.72;;;;;;;16.44;100.00;98919.16;5002653;28;20029;-71
2022/06/13 00:30:01;;;;;;;6.00;3.03;;;;;;;16.39;100.00;98919.03;4995622;28;20034;-71
2022/06/13 00:32:27;;;;;;;4.88;2.78;;;;;;;16.29;100.00;98918.78;4992455;28;20026;-71
2022/06/13 00:34:52;;;;;;;7.57;3.42;;;;;;;16.28;100.00;98912.50;4991305;28;20038;-72
2022/06/13 00:37:17;;;;;;;9.05;2.92;;;;;;;16.24;100.00;98891.38;4991207;28;20028;-71
2022/06/13 00:39:43;;;;;;;6.72;2.97;;;;;;;16.32;100.00;98899.19;4983680;28;20926;-71
2022/06/13 00:42:10;;;;;;;8.60;2.90;;;;;;;16.55;100.00;98910.09;4992910;28;20407;-71
2022/06/13 00:44:38;;;;;;;5.50;2.78;;;;;;;16.55;100.00;98904.63;4990116;28;20042;-71
2022/06/13 00:47:04;;;;;;;7.82;2.78;;;;;;;16.53;100.00;98895.03;4980183;28;20779;-71
2022/06/13 00:49:40;;;;;;;7.10;3.20;;;;;;;16.49;100.00;98886.50;4988270;28;20034;-71
2022/06/13 00:52:12;;;;;;;8.15;2.78;;;;;;;16.44;100.00;98900.84;4981647;28;20033;-71
2022/06/13 00:54:39;;;;;;;7.30;3.05;;;;;;;16.23;100.00;98901.47;5002053;28;20137;-71
2022/06/13 00:57:08;;;;;;;6.63;2.90;;;;;;;16.17;100.00;98902.44;4988577;28;20026;-71
2022/06/13 00:59:36;;;;;;;7.53;2.67;;;;;;;16.06;100.00;98875.94;4999092;28;20438;-71
2022/06/13 01:02:02;;;;;;;5.22;2.13;;;;;;;16.15;100.00;98893.66;4986059;28;20026;-71
2022/06/13 01:04:28;;;;;;;7.32;3.13;;;;;;;16.10;100.00;98899.81;4987887;28;20064;-71
2022/06/13 01:06:53;;;;;;;9.07;3.47;;;;;;;16.09;100.00;98906.34;4981167;28;20054;-71
2022/06/13 01:11:16;;;;;;;6.38;2.83;;;;;;;16.03;100.00;98906.44;4988255;28;20046;-71
2022/06/13 01:12:08;;;;;;;7.38;2.75;;;;;;;15.97;100.00;98902.75;4984890;28;20045;-71
2022/06/13 01:14:46;;;;;;;7.43;3.22;;;;;;;16.00;100.00;98911.31;4993597;28;20065;-71
2022/06/13 01:17:40;;;;;;;6.35;2.88;;;;;;;15.96;100.00;98909.31;4989844;28;20026;-71
2022/06/13 01:20:29;;;;;;;5.03;2.92;;;;;;;15.86;100.00;98898.97;4988508;28;20092;-72
2022/06/13 01:23:20;;;;;;;7.60;3.33;;;;;;;15.86;100.00;98909.88;4986525;28;20752;-71
2022/06/13 01:26:04;;;;;;;7.45;3.35;;;;;;;15.84;100.00;98911.19;4979711;28;20096;-71
2022/06/13 01:29:06;;;;;;;11.13;3.70;;;;;;;15.81;100.00;98900.75;4987920;28;20029;-71
2022/06/13 01:31:36;;;;;;;5.55;3.15;;;;;;;15.90;100.00;98908.34;4989467;28;20026;-71
2022/06/13 01:34:15;;;;;;;7.40;3.60;;;;;;;15.94;100.00;98905.97;4983642;28;20573;-71
2022/06/13 01:36:49;;;;;;;7.10;3.67;;;;;;;15.83;100.00;98896.72;4988784;28;20028;-71
2022/06/13 01:39:44;;;;;;;10.77;3.45;;;;;;;15.87;100.00;98891.59;4990884;28;20383;-72
2022/06/13 01:42:13;;;;;;;7.25;3.20;;;;;;;15.69;100.00;98878.88;4980009;28;20092;-72
2022/06/13 01:44:53;;;;;;;4.40;3.13;;;;;;;15.80;100.00;98889.00;4984009;28;20038;-71
2022/06/13 01:47:50;;;;;;;6.63;3.28;;;;;;;15.80;100.00;98866.31;4989411;28;20031;-71
2022/06/13 01:50:25;;;;;;;7.88;3.83;;;;;;;15.82;100.00;98867.75;4979763;28;20029;-71
2022/06/13 01:53:01;;;;;;;14.27;4.72;;;;;;;15.86;100.00;98879.03;4977376;28;20061;-71
2022/06/13 01:55:29;;;;;;;10.25;4.55;;;;;;;15.93;100.00;98880.59;4985626;28;20049;-72
2022/06/13 01:58:11;;;;;;;8.20;4.03;;;;;;;15.97;100.00;98887.22;4982702;28;20026;-72
2022/06/13 02:00:39;;;;;;;12.95;3.67;;;;;;;15.99;100.00;98889.72;4986118;28;20496;-71
2022/06/13 02:03:26;;;;;;;6.30;3.85;;;;;;;15.96;100.00;98888.28;4988892;28;20034;-71
2022/06/13 02:06:01;;;;;;;8.02;3.53;;;;;;;15.93;100.00;98891.50;4977622;28;20023;-71
2022/06/13 02:08:34;;;;;;;4.20;3.08;;;;;;;15.97;100.00;98903.59;4985507;28;20437;-71
2022/06/13 02:11:10;;;;;;;11.57;3.55;;;;;;;15.95;100.00;98916.63;4984717;28;20042;-72
2022/06/13 02:13:46;;;;;;;6.78;3.22;;;;;;;15.96;100.00;98907.41;4985885;28;20540;-72
2022/06/13 02:16:19;;;;;;;5.05;3.10;;;;;;;15.91;100.00;98909.19;4990413;28;20512;-71
2022/06/13 02:19:11;;;;;;;6.55;3.17;;;;;;;15.92;100.00;98905.38;4982141;28;20117;-71
2022/06/13 02:21:44;;;;;;;7.18;2.97;;;;;;;15.85;100.00;98907.38;4991956;28;20082;-71
2022/06/13 02:24:16;;;;;;;6.45;3.13;;;;;;;15.84;100.00;98903.00;4985584;28;20030;-71
2022/06/13 02:26:44;;;;;;;10.02;3.22;;;;;;;15.97;100.00;98903.59;4994133;28;20064;-71
2022/06/13 02:29:27;;;;;;;4.13;2.90;;;;;;;15.97;100.00;98902.75;4990076;28;20065;-72
2022/06/13 02:31:55;;;;;;;12.75;3.38;;;;;;;15.92;100.00;98899.91;4984798;28;20091;-71
2022/06/13 02:34:32;;;;;;;10.80;3.67;;;;;;;15.73;100.00;98880.91;4987923;28;20022;-72
2022/06/13 02:37:22;;;;;;;8.98;3.42;;;;;;;15.81;100.00;98892.56;4982292;28;21562;-72
2022/06/13 02:40:03;;;;;;;8.02;3.45;;;;;;;15.82;100.00;98892.31;4986175;28;20041;-72
2022/06/13 02:43:00;;;;;;;7.65;3.20;;;;;;;15.68;100.00;98899.03;4981524;28;20058;-71
2022/06/13 02:45:31;;;;;;;13.80;4.60;;;;;;;15.61;100.00;98895.56;4983737;28;20471;-71
2022/06/13 02:48:10;;;;;;;10.05;3.90;;;;;;;15.53;100.00;98903.00;4986391;28;20169;-71
2022/06/13 02:50:52;;;;;;;6.53;3.55;;;;;;;15.48;100.00;98900.16;4992385;28;20064;-71
2022/06/13 02:53:29;;;;;;;7.40;4.20;;;;;;;15.40;100.00;98903.19;4982663;28;20123;-71
2022/06/13 02:56:13;;;;;;;7.72;4.78;;;;;;;15.42;100.00;98916.63;4984198;28;20496;-71
2022/06/13 02:58:58;;;;;;;6.10;4.20;;;;;;;15.31;100.00;98910.06;4986862;28;20062;-72
2022/06/13 03:01:41;;;;;;;12.20;5.00;;;;;;;15.14;100.00;98898.97;4980359;28;20034;-71
2022/06/13 03:04:14;;;;;;;6.22;3.92;;;;;;;15.24;100.00;98910.13;4982530;28;20026;-71
2022/06/13 03:07:13;;;;;;;7.10;4.30;;;;;;;15.17;100.00;98903.97;4988356;28;20432;-71
2022/06/13 03:09:49;;;;;;;6.93;3.78;;;;;;;15.21;100.00;98915.22;4990729;28;20384;-72
2022/06/13 03:12:34;;;;;;;13.05;4.10;;;;;;;15.07;100.00;98904.50;4988503;28;20026;-72
2022/06/13 03:15:18;;;;;;;5.68;3.88;;;;;;;15.03;100.00;98914.19;4982616;28;20038;-72
2022/06/13 03:17:53;;;;;;;9.88;4.30;;;;;;;15.04;100.00;98915.88;4982905;28;20041;-71
2022/06/13 03:20:44;;;;;;;11.35;5.55;;;;;;;15.01;100.00;98918.22;4976069;28;20033;-71
2022/06/13 03:23:42;;;;;;;9.35;5.22;;;;;;;14.96;100.00;98924.38;4986571;28;20031;-71
2022/06/13 03:26:21;;;;;;;14.70;4.80;;;;;;;14.89;100.00;98929.88;4983724;28;20026;-72
2022/06/13 03:28:59;;;;;;;7.05;4.90;;;;;;;14.88;100.00;98921.94;4979412;28;20112;-71
2022/06/13 03:31:33;;;;;;;10.50;4.50;;;;;;;14.80;100.00;98919.50;4987799;28;20405;-71
2022/06/13 03:34:05;;;;;;;8.93;4.75;;;;;;;14.78;100.00;98925.22;4991459;28;20026;-71
2022/06/13 03:36:46;;;;;;;7.97;4.07;;;;;;;14.70;100.00;98930.97;4988639;28;20081;-71
2022/06/13 03:39:17;;;;;;;7.70;4.38;;;;;;;14.65;100.00;98928.91;5002543;28;20121;-71
2022/06/13 03:42:04;;;;;;;6.75;4.25;;;;;;;14.66;100.00;98941.47;4998336;28;20033;-75
2022/06/13 03:44:59;;;;;;;7.38;4.45;;;;;;;14.64;100.00;98931.84;4979211;28;20421;-77
2022/06/13 03:47:53;;;;;;;7.72;4.30;;;;;;;14.58;100.00;98916.44;4992962;28;20022;-75
2022/06/13 03:50:32;;;;;;;5.40;4.00;;;;;;;14.68;100.00;98931.19;4980306;28;20046;-77
2022/06/13 03:53:06;;;;;;;6.68;3.97;;;;;;;14.40;100.00;98887.28;5003645;28;20294;-77
2022/06/13 03:55:41;;;;;;;10.45;4.15;;;;;;;14.69;100.00;98940.19;4990656;28;20034;-77
2022/06/13 03:58:15;;;;;;;5.68;3.42;;;;;;;14.69;100.00;98921.09;4995120;28;20532;-76
2022/06/13 04:00:58;;;;;;;8.13;3.92;;;;;;;14.48;100.00;98895.97;4998879;28;20433;-76
2022/06/13 04:03:26;;;;;;;7.00;3.53;;;;;;;14.62;100.00;98912.22;4987577;28;20030;-75
2022/06/13 04:05:58;;;;;;;9.60;3.20;;;;;;;14.70;100.00;98944.59;4986843;28;20087;-75
2022/06/13 04:08:25;;;;;;;8.05;2.70;;;;;;;14.65;100.00;98912.56;4988859;28;20042;-75
2022/06/13 04:11:22;;;;;;;6.20;2.88;;;;;;;14.80;100.00;98924.97;4986250;28;20046;-75
2022/06/13 04:13:56;;;;;;;6.53;2.50;;;;;;;15.00;100.00;98941.91;4989720;28;20161;-75
2022/06/13 04:16:32;;;;;;;5.35;2.38;;;;;;;15.05;100.00;98949.41;4977685;28;20031;-69
2022/06/13 04:19:22;;;;;;;5.82;2.35;;;;;;;15.05;100.00;98952.13;4989282;28;20030;-75
2022/06/13 04:21:55;;;;;;;5.75;2.90;;;;;;;14.99;100.00;98948.44;4992556;28;20049;-73
2022/06/13 04:24:37;;;;;;;9.35;2.70;;;;;;;14.86;100.00;98941.25;5002820;28;20348;-74
2022/06/13 04:27:14;;;;;;;9.18;2.08;;;;;;;14.81;100.00;98943.81;4995073;28;20065;-75
2022/06/13 04:30:17;;;;;;;4.20;2.50;;;;;;;14.94;100.00;98969.25;4998604;28;20049;-74
2022/06/13 04:32:55;;;;;;;15.40;2.42;;;;;;;14.86;100.00;98956.75;4999314;28;20146;-74
2022/06/13 04:35:21;;;;;;;9.98;2.25;;;;;;;14.83;100.00;98949.06;5001092;28;20125;-71
2022/06/13 04:37:48;;;;;;;7.55;2.50;;;;;;;14.85;100.00;98955.06;4995161;28;20062;-74
2022/06/13 04:40:19;;;;;;;6.10;2.22;;;;;;;14.90;100.00;98963.41;4998014;28;20419;-74
2022/06/13 04:42:46;;;;;;;13.00;2.63;;;;;;;14.85;100.00;98955.06;4997539;28;20034;-70
2022/06/13 04:45:21;;;;;;;7.63;2.72;;;;;;;14.79;100.00;98966.88;4997640;28;20044;-77
2022/06/13 04:47:48;;;;;;;7.65;2.20;;;;;;;14.74;100.00;98959.38;5007408;28;20027;-78
2022/06/13 04:50:23;;;;;;;7.80;2.28;;;;;;;14.92;100.00;98977.63;4999229;28;20038;-71
2022/06/13 04:52:51;;;;;;;4.70;2.08;;;;;;;14.88;100.00;98979.13;5004083;28;20086;-71
2022/06/13 04:55:33;;;;;;;8.15;2.22;;;;;;;14.92;100.00;98980.34;4990946;28;20026;-71
2022/06/13 04:58:01;;;;;;;5.65;2.58;;;;;;;15.05;100.00;98985.66;4993871;28;20022;-76
2022/06/13 05:00:31;;;;;;;9.33;2.70;;;;;;;15.16;100.00;98986.78;4981220;28;20034;-70
2022/06/13 05:02:57;;;;;;;6.22;2.47;;;;;;;15.22;100.00;98991.34;4985137;28;20296;-72
2022/06/13 05:05:43;;;;;;;15.02;2.38;;;;;;;15.31;100.00;98995.41;4988897;28;20073;-70
2022/06/13 05:08:12;;;;;;;6.15;2.60;;;;;;;15.37;100.00;98998.25;4983086;28;20061;-70
2022/06/13 05:10:41;;;;;;;8.57;2.42;;;;;;;15.56;100.00;99006.19;4988507;28;20125;-71
2022/06/13 05:13:07;;;;;;;6.72;2.13;;;;;;;15.64;100.00;99009.63;4992838;28;20479;-70
2022/06/13 05:15:33;;;;;;;7.15;2.35;;;;;;;15.65;100.00;99012.16;4990010;28;20547;-70
2022/06/13 05:18:07;;;;;;;6.60;2.33;;;;;;;15.93;100.00;99011.56;4972659;28;20124;-71
2022/06/13 05:20:54;;;;;;;10.15;2.25;;;;;;;16.13;100.00;99015.88;4983276;28;20092;-70
2022/06/13 05:23:49;;;;;;;8.15;1.90;;;;;;;16.21;100.00;99019.09;4980455;28;20022;-71
2022/06/13 05:26:14;;;;;;;9.55;2.15;;;;;;;16.34;100.00;99018.03;4985112;28;20058;-69
2022/06/13 05:28:40;;;;;;;6.20;2.15;;;;;;;16.40;100.00;99019.84;4990952;28;20061;-69
2022/06/13 05:31:13;;;;;;;10.48;2.20;;;;;;;16.56;100.00;99026.50;4984072;28;20532;-75
2022/06/13 05:33:41;;;;;;;6.60;1.90;;;;;;;16.63;100.00;99031.84;4981572;28;20034;-72
2022/06/13 05:36:15;;;;;;;8.73;2.35;;;;;;;16.81;100.00;99034.47;4994634;28;20321;-71
2022/06/13 05:39:05;;;;;;;5.57;2.03;;;;;;;16.88;100.00;99039.00;5003340;28;20117;-65
2022/06/13 05:41:30;;;;;;;10.45;2.22;;;;;;;17.00;100.00;99037.06;5023422;28;20029;-73
2022/06/13 05:43:55;;;;;;;9.25;2.28;;;;;;;17.12;100.00;99032.44;5000478;28;20026;-72
2022/06/13 05:46:34;;;;;;;6.15;2.10;;;;;;;17.38;100.00;99052.94;5005502;28;20061;-72
2022/06/13 05:49:00;;;;;;;10.02;2.25;;;;;;;17.54;100.00;99040.41;5001603;28;20058;-71
2022/06/13 05:51:26;;;;;;;9.40;2.22;;;;;;;17.83;100.00;99035.81;5016609;28;20036;-71
2022/06/13 05:53:52;;;;;;;9.82;2.10;;;;;;;18.07;100.00;99044.72;5003701;28;20058;-71
2022/06/13 05:56:19;;;;;;;12.10;1.90;;;;;;;18.07;100.00;99039.25;4995511;28;20030;-74
2022/06/13 05:58:44;;;;;;;5.50;1.83;;;;;;;18.18;100.00;99052.06;4987452;28;20022;-73
2022/06/13 06:01:13;;;;;;;7.72;2.33;;;;;;;18.32;100.00;99062.72;4996627;28;20042;-74
2022/06/13 06:03:41;;;;;;;7.05;1.67;;;;;;;18.47;100.00;99060.22;5004461;28;20085;-74
2022/06/13 06:06:06;;;;;;;5.93;2.22;;;;;;;18.67;100.00;99058.88;4991419;28;20129;-73
2022/06/13 06:08:36;;;;;;;7.80;1.92;;;;;;;18.73;100.00;99060.63;4990858;28;20564;-74
2022/06/13 06:11:01;;;;;;;;;;;;;;;19.04;100.00;99078.41;4990489;28;20055;-74
2022/06/13 06:13:28;;;;;;;4.95;1.70;;;;;;;19.15;100.00;99069.25;4987329;28;19972;-73
2022/06/13 06:15:54;;;;;;;4.63;1.40;;;;;;;19.14;100.00;99075.81;4985130;28;20047;-74
2022/06/13 06:18:22;;;;;;;6.70;1.77;;;;;;;19.21;98.66;99075.63;4979394;28;20033;-74
2022/06/13 06:20:48;;;;;;;5.30;1.67;;;;;;;19.49;100.00;99069.13;4979475;28;20706;-74
2022/06/13 06:23:13;;;;;;;5.85;1.67;;;;;;;19.70;94.55;99072.97;4990626;28;20123;-74
2022/06/13 06:25:40;;;;;;;3.13;1.30;;;;;;;19.89;91.89;99079.81;4998190;28;20037;-74
2022/06/13 06:28:06;;;;;;;8.73;1.80;;;;;;;20.22;86.68;99086.19;4995556;28;20025;-74
2022/06/13 06:30:32;;;;;;;6.22;1.35;;;;;;;20.40;81.29;99079.50;4986297;28;20069;-72
2022/06/13 06:32:58;;;;;;;5.82;1.58;;;;;;;20.35;75.75;99082.19;4990928;28;20045;-73
2022/06/13 06:35:26;;;;;;;7.80;1.65;;;;;;;20.63;76.32;99091.28;4990344;28;20077;-74
2022/06/13 06:37:52;;;;;;;4.35;1.40;;;;;;;20.65;71.57;99084.44;4985888;28;20030;-74
2022/06/13 06:40:20;;;;;;;5.35;1.55;;;;;;;20.72;70.32;99082.28;4996885;28;20071;-72
2022/06/13 06:42:46;;;;;;;7.40;1.73;;;;;;;21.11;71.74;99082.00;4978425;28;20034;-72
2022/06/13 06:45:12;;;;;;;7.85;1.40;;;;;;;21.56;70.17;99075.13;4990545;28;20041;-71
2022/06/13 06:47:39;;;;;;;6.15;1.33;;;;;;;21.83;67.34;99085.13;4986096;28;20027;-75
2022/06/13 06:50:05;;;;;;;4.20;1.63;;;;;;;22.16;59.91;99078.31;4975883;28;20030;-72
2022/06/13 06:52:30;;;;;;;6.00;1.58;;;;;;;22.26;59.51;99094.09;4985114;28;20553;-72
2022/06/13 07:00:24;;;;;;;5.10;1.02;;;;;;;23.45;54.38;99092.94;4986387;28;20041;-70
2022/06/13 07:02:49;;;;;;;6.85;1.40;;;;;;;23.93;53.29;99102.44;4988988;28;20081;-71
2022/06/13 07:05:15;;;;;;;7.32;1.40;;;;;;;24.78;50.64;99104.13;4981296;28;20068;-65
2022/06/13 07:07:40;;;;;;;8.05;1.40;;;;;;;25.75;46.27;99094.84;4987960;28;20420;-70
2022/06/13 07:10:07;;;;;;;6.32;1.23;;;;;;;27.32;44.25;99097.47;4981951;28;20030;-71
2022/06/13 07:12:33;;;;;;;5.90;1.42;;;;;;;27.74;41.01;99084.38;4987836;28;20034;-71
2022/06/13 07:14:58;;;;;;;7.03;1.30;;;;;;;28.90;38.75;99092.34;4991150;28;20109;-73
2022/06/13 07:17:25;;;;;;;6.75;1.38;;;;;;;29.49;38.17;99099.41;4990349;28;21069;-75
2022/06/13 07:19:51;;;;;;;6.05;1.23;;;;;;;30.20;36.16;99080.94;4983165;28;20094;-70
2022/06/13 07:22:19;;;;;;;7.45;1.20;;;;;;;30.24;36.52;99095.91;4992048;28;20416;-71
2022/06/13 07:24:46;;;;;;;4.30;1.33;;;;;;;30.61;36.34;99096.41;4984602;28;20022;-72
2022/06/13 07:27:13;;;;;;;6.20;1.63;;;;;;;29.20;37.29;99093.53;4991055;28;20042;-71
2022/06/13 07:29:38;;;;;;;4.82;1.20;;;;;;;26.88;42.09;99098.75;4985804;28;20543;-71
2022/06/13 07:32:17;;;;;;;5.35;1.40;;;;;;;28.15;40.39;99098.28;4982536;28;20046;-71
2022/06/13 07:34:45;;;;;;;4.78;1.63;;;;;;;30.18;36.74;99103.56;4990226;28;20410;-72
2022/06/13 07:37:13;;;;;;;3.75;1.35;;;;;;;30.42;35.57;99105.94;4991449;28;20026;-72
2022/06/13 07:39:39;;;;;;;5.72;1.23;;;;;;;29.67;37.19;99113.47;4988945;28;20054;-70
2022/06/13 07:42:05;;;;;;;6.07;1.35;;;;;;;28.40;38.71;99115.50;4988127;28;20480;-71
2022/06/13 07:44:36;;;;;;;5.45;1.20;;;;;;;27.93;39.23;99106.56;4989178;28;20475;-76
2022/06/13 07:47:02;;;;;;;6.45;1.67;;;;;;;27.84;40.35;99105.63;4987660;28;20030;-73
2022/06/13 07:49:27;;;;;;;4.35;1.50;;;;;;;28.60;38.82;99111.47;4990176;28;20124;-71
2022/06/13 07:51:53;;;;;;;2.42;1.10;;;;;;;30.71;35.76;99099.69;4987492;28;20027;-73
2022/06/13 07:54:19;;;;;;;4.22;1.08;;;;;;;32.55;32.70;99102.59;4980890;28;20470;-71
2022/06/13 07:56:44;;;;;;;4.47;1.00;;;;;;;32.50;31.73;99104.41;5004440;28;20092;-69
2022/06/13 07:59:21;;;;;;;5.22;1.33;;;;;;;32.03;31.54;99107.38;4982790;28;20041;-69
2022/06/13 08:01:46;;;;;;;4.43;1.02;;;;;;;33.32;30.67;99123.44;4986627;28;22535;-69
2022/06/13 08:04:12;;;;;;;6.05;1.20;;;;;;;32.86;30.56;99102.94;4988683;28;20096;-69
2022/06/13 08:06:42;;;;;;;5.28;1.10;;;;;;;31.74;32.53;99118.53;4991699;28;20053;-69
2022/06/13 08:09:09;;;;;;;4.97;1.30;;;;;;;29.66;33.92;99123.00;4984918;28;20034;-69
2022/06/13 08:11:37;;;;;;;5.40;1.38;;;;;;;27.89;37.55;99111.09;4979641;28;20643;-69
2022/06/13 08:14:06;;;;;;;6.03;1.50;;;;;;;26.40;41.15;99135.84;4983395;28;20053;-69
2022/06/13 08:16:33;;;;;;;5.43;1.38;;;;;;;25.47;41.68;99131.75;4978881;28;20093;-69
2022/06/13 08:18:59;;;;;;;4.32;1.33;;;;;;;25.35;43.05;99134.91;4977533;28;20052;-68
2022/06/13 08:21:24;;;;;;;5.93;1.35;;;;;;;25.18;43.62;99131.75;4980994;28;20460;-68
2022/06/13 08:23:49;;;;;;;5.63;1.52;;;;;;;25.77;42.76;99130.56;4983124;28;20409;-69
2022/06/13 08:26:14;;;;;;;5.38;1.38;;;;;;;25.84;41.68;99133.84;4974486;28;20552;-69
2022/06/13 08:28:40;;;;;;;4.00;1.38;;;;;;;28.16;38.71;99144.44;4975312;28;20045;-68
2022/06/13 08:31:09;;;;;;;5.90;1.38;;;;;;;31.38;33.73;99136.59;4981380;28;20046;-73
2022/06/13 08:33:35;;;;;;;4.43;1.33;;;;;;;33.07;31.13;99133.78;4984967;28;20049;-74
2022/06/13 08:36:00;;;;;;;5.18;1.50;;;;;;;33.81;30.00;99139.53;4986010;28;20511;-71
2022/06/13 08:38:26;;;;;;;5.15;1.10;;;;;;;34.26;29.47;99133.78;4982092;28;20361;-71
2022/06/13 08:41:10;;;;;;;3.42;1.20;;;;;;;35.06;28.67;99129.38;4976997;28;20416;-72
2022/06/13 08:43:47;;;;;;;4.07;1.10;;;;;;;34.37;28.77;99127.69;4982454;28;20038;-72
2022/06/13 08:46:30;;;;;;;4.95;1.60;;;;;;;32.02;31.12;99124.50;4980483;28;20040;-73
2022/06/13 08:49:06;;;;;;;8.23;1.45;;;;;;;31.93;31.62;99130.13;4988287;28;20492;-72
2022/06/13 08:51:45;;;;;;;4.32;1.33;;;;;;;31.49;31.09;99135.06;4982348;28;20133;-71
2022/06/13 08:54:19;;;;;;;3.42;1.20;;;;;;;28.83;37.78;99131.78;4978238;28;20034;-71
2022/06/13 08:56:46;;;;;;;4.07;1.13;;;;;;;28.13;39.77;99130.31;4984398;28;20034;-72
2022/06/13 08:59:22;;;;;;;9.02;1.67;;;;;;;26.94;39.02;99143.97;4986718;28;20022;-72
2022/06/13 09:02:02;;;;;;;4.35;1.30;;;;;;;30.50;36.35;99143.41;4985889;28;20026;-72
2022/06/13 09:04:33;;;;;;;8.60;1.60;;;;;;;32.81;31.91;99139.59;4989762;28;20042;-71
2022/06/13 09:07:45;;;;;;;6.20;1.42;;;;;;;29.69;35.08;99148.25;4988755;28;20026;-72
2022/06/13 09:10:14;;;;;;;11.10;1.80;;;;;;;29.19;34.37;99150.44;4985184;28;20031;-71
2022/06/13 09:12:47;;;;;;;4.03;1.50;;;;;;;30.44;32.03;99148.28;4986029;28;20544;-72
2022/06/13 09:15:21;;;;;;;5.68;1.20;;;;;;;30.13;33.30;99137.25;4990476;28;20045;-71
2022/06/13 09:17:59;;;;;;;6.38;1.70;;;;;;;29.46;34.48;99147.44;4986398;28;20378;-72
2022/06/13 09:20:34;;;;;;;7.15;1.50;;;;;;;30.01;34.02;99139.81;4995120;28;20030;-71
2022/06/13 09:23:17;;;;;;;5.55;1.58;;;;;;;30.17;35.05;99146.59;4993777;28;20041;-72
2022/06/13 09:26:10;;;;;;;7.00;1.85;;;;;;;31.47;31.80;99142.16;4984869;28;20108;-71
2022/06/13 09:28:57;;;;;;;7.88;1.75;;;;;;;32.16;29.85;99141.06;4993580;28;20531;-72
2022/06/13 09:31:34;;;;;;;4.05;1.60;;;;;;;33.59;28.04;99146.44;4990228;28;20145;-72
2022/06/13 09:34:08;;;;;;;5.40;1.10;;;;;;;33.55;27.93;99151.91;4985874;28;20034;-72
2022/06/13 09:36:36;;;;;;;3.97;1.00;;;;;;;30.19;30.85;99149.06;4988813;28;20119;-71
2022/06/13 09:39:09;;;;;;;7.30;1.60;;;;;;;27.32;35.10;99164.13;4980846;28;20504;-71
2022/06/13 09:42:02;;;;;;;4.97;1.20;;;;;;;28.73;35.10;99157.91;4986207;28;20515;-71
2022/06/13 09:45:01;;;;;;;3.60;1.25;;;;;;;31.99;29.83;99162.38;4987432;28;20042;-71
2022/06/13 09:47:35;;;;;;;4.82;1.65;;;;;;;31.84;29.87;99155.34;4983298;28;20030;-70
2022/06/13 09:50:04;;;;;;;5.18;1.40;;;;;;;30.38;31.64;99159.97;4980624;28;20400;-71
2022/06/13 09:52:50;;;;;;;;;;;;;;;30.18;30.80;99155.78;4983985;28;20034;-71
2022/06/13 09:55:15;;;;;;;6.88;1.20;;;;;;;31.36;30.66;99159.28;4996582;28;19920;-71
2022/06/13 09:58:18;;;;;;;5.03;1.30;;;;;;;33.07;29.01;99152.59;4993348;28;20057;-71
2022/06/13 10:00:53;;;;;;;5.05;1.50;;;;;;;34.38;28.88;99160.25;4982853;28;20038;-71
2022/06/13 10:03:24;;;;;;;4.03;1.23;;;;;;;34.20;26.46;99157.69;4987329;28;20068;-71
2022/06/13 10:06:01;;;;;;;4.45;1.35;;;;;;;33.79;27.62;99159.53;4980165;28;20034;-71
2022/06/13 10:08:30;;;;;;;8.43;1.25;;;;;;;33.55;27.00;99151.91;4981778;28;20081;-72
2022/06/13 10:11:08;;;;;;;6.68;1.77;;;;;;;34.29;26.22;99151.94;4980120;28;20083;-71
2022/06/13 10:13:45;;;;;;;5.78;1.60;;;;;;;33.55;27.36;99153.91;4983737;28;20121;-71
2022/06/13 10:16:29;;;;;;;3.10;1.15;;;;;;;33.70;27.16;99144.81;4985465;28;20413;-71
2022/06/13 10:19:16;;;;;;;6.63;1.40;;;;;;;34.50;27.35;99134.91;4984619;28;20069;-71
2022/06/13 10:21:44;;;;;;;3.47;1.10;;;;;;;33.99;25.74;99154.16;4981310;28;20085;-71
2022/06/13 10:24:24;;;;;;;4.30;1.40;;;;;;;33.76;26.48;99151.81;4983995;28;20487;-70
2022/06/13 10:26:58;;;;;;;4.07;1.17;;;;;;;33.44;26.78;99163.91;4984169;28;20045;-70
2022/06/13 10:29:38;;;;;;;5.28;1.40;;;;;;;33.79;26.62;99153.91;4975247;28;20039;-71
2022/06/13 10:32:48;;;;;;;3.95;1.30;;;;;;;33.48;25.86;99160.03;4980491;28;20100;-70
2022/06/13 10:35:32;;;;;;;6.75;1.10;;;;;;;34.25;25.13;99165.88;4982440;28;20460;-70
2022/06/13 10:38:21;;;;;;;4.53;1.27;;;;;;;33.36;25.58;99157.22;4984096;28;20038;-70
2022/06/13 10:40:46;;;;;;;6.97;1.02;;;;;;;34.24;24.53;99158.63;4979937;28;20507;-72
2022/06/13 10:43:12;;;;;;;6.03;1.23;;;;;;;33.13;24.36;99159.59;4987580;28;20033;-71
2022/06/13 10:45:40;;;;;;;2.78;0.80;;;;;;;33.38;23.90;99160.50;4981558;28;20068;-71
2022/06/13 10:48:19;;;;;;;2.77;0.77;;;;;;;32.66;23.72;99162.63;4977971;28;20056;-71
2022/06/13 10:50:51;;;;;;;4.55;1.02;;;;;;;33.34;23.11;99159.53;4979715;28;20034;-70
2022/06/13 10:53:29;;;;;;;5.70;1.02;;;;;;;32.95;26.00;99154.13;4977896;28;20489;-70
2022/06/13 10:55:58;;;;;;;3.75;0.93;;;;;;;32.59;25.24;99156.75;4980192;28;20126;-71
2022/06/13 10:58:30;;;;;;;4.85;1.17;;;;;;;32.16;25.25;99164.25;4985918;28;20030;-71
2022/06/13 11:01:10;;;;;;;4.35;1.10;;;;;;;30.10;26.94;99165.78;4984746;28;20019;-71
2022/06/13 11:03:39;;;;;;;2.63;0.80;;;;;;;32.13;27.24;99158.53;4977266;28;20412;-71
2022/06/13 11:06:05;;;;;;;;;;;;;;;33.28;26.18;99161.75;4984167;28;20092;-70
2022/06/13 11:08:31;;;;;;;3.92;0.70;;;;;;;33.70;23.58;99149.59;4980483;28;19965;-70
2022/06/13 11:10:59;;;;;;;3.47;0.80;;;;;;;33.41;23.94;99170.22;4992214;28;20761;-70
2022/06/13 11:13:32;;;;;;;3.63;0.80;;;;;;;32.77;25.20;99168.63;4986416;28;20030;-71
2022/06/13 11:24:53;;;;;;;3.95;1.02;;;;;;;32.73;24.74;99162.91;4986884;28;20541;-73
2022/06/13 11:27:39;;;;;;;4.45;1.10;;;;;;;33.15;25.02;99151.66;4984984;28;20149;-72
2022/06/13 11:30:35;;;;;;;4.13;1.30;;;;;;;33.94;23.75;99152.41;4981077;28;20106;-72
2022/06/13 11:33:17;;;;;;;5.85;1.00;;;;;;;31.69;25.88;99149.50;4983913;28;20037;-71
2022/06/13 11:35:42;;;;;;;6.30;1.10;;;;;;;29.34;28.50;99155.56;4986987;28;20034;-72
2022/06/13 11:38:31;;;;;;;3.63;0.90;;;;;;;30.32;29.71;99153.72;4986369;28;20060;-70
2022/06/13 11:41:15;;;;;;;;;;;;;;;30.25;29.20;99156.16;4978942;28;20389;-70
2022/06/13 11:44:01;;;;;;;5.65;0.82;;;;;;;31.45;27.75;99150.88;4981652;28;20534;-72
2022/06/13 11:46:26;;;;;;;3.00;0.80;;;;;;;31.49;27.46;99157.44;4979720;28;20027;-72
2022/06/13 11:48:52;;;;;;;5.83;1.87;;;;;;;31.48;28.88;99160.59;4977270;28;20037;-72
2022/06/13 11:51:24;;;;;;;3.20;0.90;;;;;;;29.70;29.71;99158.25;4976854;28;20038;-72
2022/06/13 11:53:53;;;;;;;3.08;1.02;;;;;;;28.04;31.21;99149.72;4976511;28;20422;-72
2022/06/13 11:56:28;;;;;;;5.32;1.02;;;;;;;27.09;32.81;99155.63;4986780;28;20058;-72
2022/06/13 11:58:55;;;;;;;4.78;0.80;;;;;;;27.31;32.50;99143.06;4986709;28;20100;-72
2022/06/13 12:01:20;;;;;;;3.83;1.15;;;;;;;27.84;32.35;99158.47;4987780;28;20030;-72
2022/06/13 12:04:14;;;;;;;2.97;1.10;;;;;;;27.32;31.87;99153.84;4984470;28;20049;-72
2022/06/13 12:06:42;;;;;;;4.82;1.08;;;;;;;27.34;32.01;99156.31;4987907;28;20291;-72
2022/06/13 12:09:16;;;;;;;3.40;1.05;;;;;;;29.20;30.79;99160.44;4987583;28;20105;-72
2022/06/13 12:11:56;;;;;;;3.60;1.17;;;;;;;28.46;31.66;99144.94;4987528;28;20551;-72
2022/06/13 12:14:27;;;;;;;5.13;0.95;;;;;;;27.81;32.77;99157.13;4983403;28;20045;-72